createdAt,value
2023-05-11T00:02:04.175Z,63.10
2023-05-11T00:04:30.812Z,63.10
2023-05-11T00:07:00.671Z,62.90
2023-05-11T00:09:27.162Z,63.10
2023-05-11T00:11:53.633Z,63.10
2023-05-11T00:14:20.100Z,63.00
2023-05-11T00:16:46.577Z,63.00
2023-05-11T00:19:13.100Z,63.10
2023-05-11T00:21:39.633Z,63.00
2023-05-11T00:24:06.222Z,63.10
2023-05-11T00:26:32.690Z,63.10
2023-05-11T00:28:59.186Z,63.00
2023-05-11T00:31:26.531Z,63.00
2023-05-11T00:33:54.577Z,63.00
2023-05-11T00:36:21.072Z,63.00
2023-05-11T00:38:47.546Z,63.00
2023-05-11T00:41:14.037Z,63.00
2023-05-11T00:43:40.553Z,63.00
2023-05-11T00:46:07.041Z,63.00
2023-05-11T00:48:33.537Z,63.00
2023-05-11T00:51:00.019Z,62.90
2023-05-11T00:53:26.491Z,63.00
2023-05-11T00:55:53.092Z,63.00
2023-05-11T00:58:19.573Z,62.90
2023-05-11T01:00:46.120Z,63.00
2023-05-11T01:03:12.692Z,63.00
2023-05-11T01:05:39.199Z,62.90
2023-05-11T01:08:05.670Z,63.00
2023-05-11T01:10:32.141Z,63.00
2023-05-11T01:12:58.604Z,62.90
2023-05-11T01:15:30.739Z,62.90
2023-05-11T01:17:57.311Z,62.90
2023-05-11T01:20:23.889Z,63.00
2023-05-11T01:22:54.808Z,62.90
2023-05-11T01:25:21.310Z,62.90
2023-05-11T01:27:47.772Z,62.90
2023-05-11T01:30:14.256Z,63.00
2023-05-11T01:32:41.782Z,62.90
2023-05-11T01:35:08.508Z,63.00
2023-05-11T01:37:35.008Z,62.90
2023-05-11T01:40:06.745Z,62.90
2023-05-11T01:42:33.220Z,63.00
2023-05-11T01:44:59.714Z,62.90
2023-05-11T01:47:26.245Z,62.90
2023-05-11T01:49:52.752Z,62.90
2023-05-11T01:52:19.242Z,62.90
2023-05-11T01:54:45.699Z,62.80
2023-05-11T01:57:12.207Z,62.90
2023-05-11T01:59:38.680Z,62.80
2023-05-11T02:02:05.174Z,62.80
2023-05-11T02:04:31.710Z,62.80
2023-05-11T02:06:58.183Z,62.80
2023-05-11T02:09:24.667Z,62.80
2023-05-11T02:11:51.147Z,62.80
2023-05-11T02:14:17.617Z,62.80
2023-05-11T02:16:44.125Z,62.80
2023-05-11T02:19:10.657Z,62.80
2023-05-11T02:21:37.177Z,62.70
2023-05-11T02:24:03.641Z,62.80
2023-05-11T02:26:30.141Z,62.80
2023-05-11T02:28:56.604Z,62.80
2023-05-11T02:31:23.171Z,62.80
2023-05-11T02:33:52.092Z,62.80
2023-05-11T02:36:19.015Z,62.80
2023-05-11T02:38:45.521Z,62.80
2023-05-11T02:41:12.038Z,62.70
2023-05-11T02:43:38.525Z,62.80
2023-05-11T02:46:05.022Z,62.70
2023-05-11T02:48:31.552Z,62.70
2023-05-11T02:50:58.036Z,62.70
2023-05-11T02:53:24.532Z,62.80
2023-05-11T02:55:51.005Z,62.80
2023-05-11T02:58:17.552Z,62.80
2023-05-11T03:00:44.094Z,62.60
2023-05-11T03:03:10.703Z,62.70
2023-05-11T03:05:37.225Z,62.70
2023-05-11T03:08:03.775Z,62.70
2023-05-11T03:10:30.253Z,62.70
2023-05-11T03:12:56.764Z,62.70
2023-05-11T03:15:23.244Z,62.70
2023-05-11T03:17:49.758Z,62.70
2023-05-11T03:20:16.449Z,62.70
2023-05-11T03:22:43.212Z,62.70
2023-05-11T03:25:09.734Z,62.70
2023-05-11T03:27:36.241Z,62.60
2023-05-11T03:30:02.755Z,62.70
2023-05-11T03:32:29.269Z,62.70
2023-05-11T03:34:55.791Z,62.70
2023-05-11T03:37:22.272Z,62.60
2023-05-11T03:39:48.763Z,62.60
2023-05-11T03:42:18.882Z,62.60
2023-05-11T03:44:45.412Z,62.50
2023-05-11T03:47:11.899Z,62.60
2023-05-11T03:49:38.394Z,62.60
2023-05-11T03:52:04.950Z,62.60
2023-05-11T03:54:31.460Z,62.60
2023-05-11T03:56:57.942Z,62.50
2023-05-11T03:59:24.435Z,62.60
2023-05-11T04:01:50.911Z,62.60
2023-05-11T04:04:17.410Z,62.60
2023-05-11T04:06:43.892Z,62.60
2023-05-11T04:09:10.403Z,62.60
2023-05-11T04:11:36.893Z,62.60
2023-05-11T04:14:03.415Z,62.60
2023-05-11T04:16:29.955Z,62.60
2023-05-11T04:18:56.578Z,62.60
2023-05-11T04:21:23.125Z,62.60
2023-05-11T04:23:49.629Z,62.50
2023-05-11T04:26:16.113Z,62.60
2023-05-11T04:28:42.601Z,62.50
2023-05-11T04:31:09.091Z,62.50
2023-05-11T04:33:35.597Z,62.60
2023-05-11T04:36:02.089Z,62.50
2023-05-11T04:38:28.569Z,62.50
2023-05-11T04:40:55.043Z,62.60
2023-05-11T04:43:21.514Z,62.50
2023-05-11T04:45:47.994Z,62.50
2023-05-11T04:48:14.489Z,62.50
2023-05-11T04:50:40.965Z,62.50
2023-05-11T04:53:07.454Z,62.50
2023-05-11T04:55:33.954Z,62.50
2023-05-11T04:58:00.438Z,62.40
2023-05-11T05:00:26.952Z,62.50
2023-05-11T05:02:55.029Z,62.50
2023-05-11T05:05:21.614Z,62.50
2023-05-11T05:07:48.076Z,62.50
2023-05-11T05:10:14.568Z,62.50
2023-05-11T05:12:41.037Z,62.50
2023-05-11T05:15:07.560Z,62.50
2023-05-11T05:17:34.111Z,62.50
2023-05-11T05:20:00.666Z,62.50
2023-05-11T05:22:27.191Z,62.50
2023-05-11T05:24:53.742Z,62.40
2023-05-11T05:27:20.213Z,62.60
2023-05-11T05:29:46.712Z,62.40
2023-05-11T05:32:13.224Z,62.50
2023-05-11T05:34:39.736Z,62.50
2023-05-11T05:37:06.217Z,62.50
2023-05-11T05:39:32.725Z,62.50
2023-05-11T05:41:59.215Z,62.50
2023-05-11T05:44:25.685Z,62.40
2023-05-11T05:46:52.173Z,62.50
2023-05-11T05:49:18.671Z,62.60
2023-05-11T05:51:45.168Z,62.50
2023-05-11T05:54:11.674Z,62.60
2023-05-11T05:56:38.202Z,62.60
2023-05-11T05:59:04.674Z,62.50
2023-05-11T06:01:31.179Z,62.50
2023-05-11T06:03:57.976Z,62.50
2023-05-11T06:06:24.651Z,62.50
2023-05-11T06:08:51.120Z,62.50
2023-05-11T06:11:17.610Z,62.50
2023-05-11T06:13:44.094Z,62.50
2023-05-11T06:16:10.656Z,62.40
2023-05-11T06:18:37.197Z,62.50
2023-05-11T06:21:03.723Z,62.50
2023-05-11T06:23:30.191Z,62.40
2023-05-11T06:25:56.690Z,62.60
2023-05-11T06:28:23.159Z,62.40
2023-05-11T06:30:49.644Z,62.50
2023-05-11T06:33:16.135Z,62.40
2023-05-11T06:35:42.642Z,62.40
2023-05-11T06:38:09.127Z,62.50
2023-05-11T06:40:37.044Z,62.40
2023-05-11T06:43:03.567Z,62.50
2023-05-11T06:45:30.105Z,62.50
2023-05-11T06:47:56.740Z,62.40
2023-05-11T06:50:25.092Z,62.40
2023-05-11T06:52:53.719Z,62.40
2023-05-11T06:55:20.190Z,62.50
2023-05-11T06:57:46.764Z,62.40
2023-05-11T07:00:19.296Z,62.50
2023-05-11T07:02:47.092Z,62.50
2023-05-11T07:05:19.132Z,62.40
2023-05-11T07:07:45.629Z,62.50
2023-05-11T07:10:12.098Z,62.50
2023-05-11T07:12:38.591Z,62.40
2023-05-11T07:15:05.072Z,62.50
2023-05-11T07:17:31.590Z,62.40
2023-05-11T07:19:58.091Z,62.50
2023-05-11T07:22:24.563Z,62.50
2023-05-11T07:24:51.044Z,62.50
2023-05-11T07:27:17.509Z,62.50
2023-05-11T07:29:43.980Z,62.50
2023-05-11T07:32:10.464Z,62.50
2023-05-11T07:34:36.969Z,62.40
2023-05-11T07:37:03.612Z,62.50
2023-05-11T07:39:30.121Z,62.50
2023-05-11T07:41:56.610Z,62.50
2023-05-11T07:44:23.093Z,62.50
2023-05-11T07:46:49.601Z,62.40
2023-05-11T07:49:25.408Z,62.50
2023-05-11T07:52:01.891Z,62.50
2023-05-11T07:54:28.390Z,62.40
2023-05-11T07:56:54.882Z,62.50
2023-05-11T07:59:21.364Z,62.50
2023-05-11T08:01:47.847Z,62.60
2023-05-11T08:04:14.433Z,62.50
2023-05-11T08:06:40.920Z,62.50
2023-05-11T08:09:07.405Z,62.50
2023-05-11T08:11:37.109Z,62.50
2023-05-11T08:14:03.604Z,62.50
2023-05-11T08:16:30.156Z,62.40
2023-05-11T08:18:56.717Z,62.40
2023-05-11T08:21:23.265Z,62.40
2023-05-11T08:23:49.744Z,62.40
2023-05-11T08:26:16.228Z,62.50
2023-05-11T08:28:42.712Z,62.50
2023-05-11T08:31:09.199Z,62.50
2023-05-11T08:33:38.169Z,62.50
2023-05-11T08:36:05.257Z,62.50
2023-05-11T08:38:31.734Z,62.40
2023-05-11T08:40:58.204Z,62.40
2023-05-11T08:43:24.703Z,62.50
2023-05-11T08:45:51.193Z,62.40
2023-05-11T08:48:17.668Z,62.50
2023-05-11T08:50:44.150Z,62.40
2023-05-11T08:53:10.636Z,62.50
2023-05-11T08:55:37.114Z,62.40
2023-05-11T08:58:03.610Z,62.50
2023-05-11T09:00:30.090Z,62.40
2023-05-11T09:02:56.587Z,62.30
2023-05-11T09:05:23.212Z,62.40
2023-05-11T09:07:49.753Z,62.40
2023-05-11T09:10:16.254Z,62.40
2023-05-11T09:12:42.742Z,62.40
2023-05-11T09:15:09.208Z,62.40
2023-05-11T09:17:35.748Z,62.30
2023-05-11T09:20:02.266Z,62.40
2023-05-11T09:22:31.049Z,62.50
2023-05-11T09:24:58.576Z,62.40
2023-05-11T09:27:25.073Z,62.40
2023-05-11T09:29:52.168Z,62.40
2023-05-11T09:32:18.822Z,62.50
2023-05-11T09:34:45.553Z,62.30
2023-05-11T09:37:12.082Z,62.30
2023-05-11T09:39:44.642Z,62.50
2023-05-11T09:42:25.094Z,62.40
2023-05-11T09:44:51.578Z,62.40
2023-05-11T09:47:19.193Z,62.40
2023-05-11T09:49:45.682Z,62.20
2023-05-11T09:52:13.187Z,62.40
2023-05-11T09:54:39.662Z,62.40
2023-05-11T09:57:06.138Z,62.50
2023-05-11T09:59:32.624Z,62.40
2023-05-11T10:01:59.183Z,62.30
2023-05-11T10:04:25.802Z,62.40
2023-05-11T10:06:55.210Z,62.50
2023-05-11T10:09:21.719Z,62.30
2023-05-11T10:11:48.205Z,62.30
2023-05-11T10:14:19.361Z,62.40
2023-05-11T10:16:46.038Z,62.20
2023-05-11T10:19:12.619Z,62.50
2023-05-11T10:21:39.161Z,62.30
2023-05-11T10:24:05.699Z,62.30
2023-05-11T10:26:32.401Z,62.20
2023-05-11T10:29:01.227Z,62.40
2023-05-11T10:31:27.733Z,62.30
2023-05-11T10:33:54.229Z,62.30
2023-05-11T10:36:20.708Z,62.20
2023-05-11T10:38:47.203Z,62.30
2023-05-11T10:41:13.688Z,62.30
2023-05-11T10:43:40.180Z,62.30
2023-05-11T10:46:06.665Z,62.20
2023-05-11T10:48:37.244Z,62.20
2023-05-11T10:51:03.732Z,62.10
2023-05-11T10:53:30.209Z,62.20
2023-05-11T10:55:56.714Z,62.10
2023-05-11T10:58:25.230Z,62.20
2023-05-11T11:00:51.779Z,62.20
2023-05-11T11:03:18.317Z,62.10
2023-05-11T11:08:37.304Z,62.20
2023-05-11T11:11:06.106Z,62.30
2023-05-11T11:13:33.115Z,62.20
2023-05-11T11:15:59.599Z,62.10
2023-05-11T11:18:26.141Z,62.10
2023-05-11T11:20:52.673Z,62.20
2023-05-11T11:23:19.147Z,62.20
2023-05-11T11:25:45.618Z,62.20
2023-05-11T11:28:12.090Z,62.10
2023-05-11T11:30:38.577Z,62.20
2023-05-11T11:33:05.106Z,62.10
2023-05-11T11:35:37.247Z,62.20
2023-05-11T11:38:03.745Z,62.10
2023-05-11T11:40:36.564Z,62.10
2023-05-11T11:43:09.637Z,62.10
2023-05-11T11:45:36.123Z,62.00
2023-05-11T11:48:02.673Z,62.10
2023-05-11T11:50:29.197Z,62.20
2023-05-11T11:52:55.713Z,62.10
2023-05-11T11:55:22.200Z,62.10
2023-05-11T11:57:48.689Z,62.20
2023-05-11T12:00:15.153Z,62.10
2023-05-11T12:02:41.726Z,62.00
2023-05-11T12:05:08.373Z,62.10
2023-05-11T12:07:34.956Z,62.10
2023-05-11T12:10:01.462Z,62.00
2023-05-11T12:12:27.958Z,62.10
2023-05-11T12:14:54.448Z,62.10
2023-05-11T12:17:20.974Z,62.10
2023-05-11T12:19:47.467Z,62.10
2023-05-11T12:22:13.968Z,62.00
2023-05-11T12:24:40.448Z,62.00
2023-05-11T12:27:07.320Z,62.10
2023-05-11T12:29:33.813Z,62.10
2023-05-11T12:32:01.412Z,62.10
2023-05-11T12:34:27.968Z,62.00
2023-05-11T12:36:54.470Z,62.10
2023-05-11T12:39:20.993Z,62.10
2023-05-11T12:41:47.482Z,62.10
2023-05-11T12:44:13.992Z,62.10
2023-05-11T12:46:40.542Z,61.90
2023-05-11T12:49:07.064Z,62.00
2023-05-11T12:51:33.537Z,62.00
2023-05-11T12:54:00.039Z,61.90
2023-05-11T12:56:26.526Z,62.10
2023-05-11T12:58:53.019Z,62.10
2023-05-11T13:01:19.526Z,62.10
2023-05-11T13:03:46.178Z,61.80
2023-05-11T13:06:12.762Z,61.90
2023-05-11T13:08:39.254Z,61.90
2023-05-11T13:11:05.742Z,61.90
2023-05-11T13:13:32.410Z,61.90
2023-05-11T13:15:59.029Z,61.80
2023-05-11T13:18:25.637Z,61.90
2023-05-11T13:20:52.154Z,62.00
2023-05-11T13:23:18.625Z,62.00
2023-05-11T13:25:45.113Z,61.90
2023-05-11T13:28:11.602Z,61.90
2023-05-11T13:30:38.136Z,62.10
2023-05-11T13:33:04.690Z,62.10
2023-05-11T13:35:31.229Z,62.20
2023-05-11T13:37:57.710Z,62.10
2023-05-11T13:40:24.225Z,62.10
2023-05-11T13:42:50.695Z,62.10
2023-05-11T13:45:17.301Z,62.30
2023-05-11T13:47:45.693Z,62.00
2023-05-11T13:50:12.416Z,62.40
2023-05-11T13:52:38.888Z,62.30
2023-05-11T13:55:05.463Z,62.20
2023-05-11T13:57:32.006Z,62.20
2023-05-11T13:59:58.605Z,61.90
2023-05-11T14:02:25.114Z,62.20
2023-05-11T14:04:51.674Z,62.00
2023-05-11T14:07:18.137Z,62.10
2023-05-11T14:09:44.598Z,62.10
2023-05-11T14:12:11.083Z,62.00
2023-05-11T14:14:37.574Z,62.10
2023-05-11T14:17:04.082Z,62.10
2023-05-11T14:19:30.625Z,62.10
2023-05-11T14:21:57.107Z,62.20
2023-05-11T14:24:25.406Z,62.20
2023-05-11T14:26:52.049Z,62.10
2023-05-11T14:29:18.536Z,62.10
2023-05-11T14:31:45.423Z,62.20
2023-05-11T14:34:11.963Z,62.10
2023-05-11T14:36:38.481Z,62.10
2023-05-11T14:39:04.978Z,62.30
2023-05-11T14:41:31.475Z,62.30
2023-05-11T14:43:57.943Z,62.30
2023-05-11T14:46:26.496Z,62.40
2023-05-11T14:48:53.403Z,62.10
2023-05-11T14:51:19.921Z,62.30
2023-05-11T14:53:46.384Z,62.30
2023-05-11T14:56:19.465Z,62.40
2023-05-11T14:58:45.964Z,62.30
2023-05-11T15:01:12.501Z,62.40
2023-05-11T15:03:39.011Z,62.30
2023-05-11T15:06:05.516Z,62.30
2023-05-11T15:08:31.973Z,62.40
2023-05-11T15:10:58.455Z,62.40
2023-05-11T15:13:24.966Z,62.30
2023-05-11T15:15:51.504Z,62.40
2023-05-11T15:18:18.174Z,62.40
2023-05-11T15:20:44.763Z,62.40
2023-05-11T15:23:11.752Z,62.50
2023-05-11T15:25:38.350Z,62.30
2023-05-11T15:28:04.893Z,62.30
2023-05-11T15:30:32.718Z,62.40
2023-05-11T15:32:59.625Z,62.40
2023-05-11T15:35:26.175Z,62.50
2023-05-11T15:37:55.470Z,62.50
2023-05-11T15:40:21.959Z,62.50
2023-05-11T15:42:48.444Z,62.40
2023-05-11T15:45:14.919Z,62.60
2023-05-11T15:47:41.437Z,62.60
2023-05-11T15:50:07.909Z,62.60
2023-05-11T15:52:34.406Z,62.60
2023-05-11T15:55:00.876Z,62.50
2023-05-11T15:57:27.348Z,62.60
2023-05-11T15:59:53.831Z,62.60
2023-05-11T16:02:20.345Z,62.70
2023-05-11T16:04:46.852Z,62.70
2023-05-11T16:07:13.333Z,62.50
2023-05-11T16:09:39.825Z,62.60
2023-05-11T16:12:06.322Z,62.60
2023-05-11T16:14:32.836Z,62.70
2023-05-11T16:17:01.789Z,62.70
2023-05-11T16:19:28.371Z,62.70
2023-05-11T16:21:54.851Z,62.70
2023-05-11T16:24:25.516Z,62.70
2023-05-11T16:26:52.025Z,62.80
2023-05-11T16:29:18.528Z,62.60
2023-05-11T16:31:45.055Z,62.70
2023-05-11T16:34:11.616Z,62.80
2023-05-11T16:36:38.193Z,62.80
2023-05-11T16:39:04.677Z,62.80
2023-05-11T16:41:31.157Z,62.90
2023-05-11T16:43:57.680Z,62.80
2023-05-11T16:46:24.228Z,62.70
2023-05-11T16:48:50.708Z,62.80
2023-05-11T16:51:17.200Z,62.80
2023-05-11T16:53:43.668Z,62.90
2023-05-11T16:56:10.141Z,62.90
2023-05-11T16:58:36.628Z,62.80
2023-05-11T17:01:03.117Z,62.90
2023-05-11T17:03:29.711Z,62.90
2023-05-11T17:05:56.315Z,62.90
2023-05-11T17:08:22.794Z,62.90
2023-05-11T17:10:49.284Z,62.80
2023-05-11T17:13:15.753Z,62.90
2023-05-11T17:15:42.277Z,62.90
2023-05-11T17:18:08.803Z,62.90
2023-05-11T17:20:37.556Z,62.90
2023-05-11T17:23:04.044Z,63.00
2023-05-11T17:25:30.533Z,63.00
2023-05-11T17:27:57.064Z,63.00
2023-05-11T17:30:32.915Z,63.00
2023-05-11T17:33:07.037Z,63.00
2023-05-11T17:35:33.777Z,63.00
2023-05-11T17:38:01.537Z,62.90
2023-05-11T17:40:27.999Z,63.10
2023-05-11T17:42:54.463Z,63.00
2023-05-11T17:45:21.204Z,63.00
2023-05-11T17:47:47.857Z,63.00
2023-05-11T17:50:14.867Z,63.10
2023-05-11T17:52:41.383Z,63.00
2023-05-11T17:55:07.862Z,63.10
2023-05-11T17:57:34.391Z,63.20
2023-05-11T18:00:00.872Z,63.20
2023-05-11T18:02:27.439Z,63.20
2023-05-11T18:04:53.968Z,63.20
2023-05-11T18:07:20.483Z,63.10
2023-05-11T18:09:46.943Z,63.20
2023-05-11T18:12:13.607Z,63.20
2023-05-11T18:14:40.083Z,63.10
2023-05-11T18:17:06.583Z,63.20
2023-05-11T18:19:33.065Z,63.20
2023-05-11T18:21:59.530Z,63.20
2023-05-11T18:24:25.989Z,63.20
2023-05-11T18:26:52.468Z,63.10
2023-05-11T18:29:19.474Z,63.10
2023-05-11T18:31:49.691Z,63.10
2023-05-11T18:34:16.234Z,63.10
2023-05-11T18:36:42.703Z,63.10
2023-05-11T18:39:09.196Z,63.20
2023-05-11T18:41:35.677Z,63.20
2023-05-11T18:44:02.140Z,63.20
2023-05-11T18:46:28.635Z,63.10
2023-05-11T18:48:55.176Z,63.30
2023-05-11T18:51:21.651Z,63.20
2023-05-11T18:53:48.143Z,63.30
2023-05-11T18:56:14.668Z,63.30
2023-05-11T18:58:41.174Z,63.30
2023-05-11T19:01:07.718Z,63.20
2023-05-11T19:03:34.280Z,63.40
2023-05-11T19:06:00.827Z,63.30
2023-05-11T19:08:27.348Z,63.40
2023-05-11T19:10:53.921Z,63.40
2023-05-11T19:13:20.485Z,63.40
2023-05-11T19:15:46.968Z,63.30
2023-05-11T19:18:13.500Z,63.40
2023-05-11T19:20:40.078Z,63.40
2023-05-11T19:23:06.583Z,63.40
2023-05-11T19:25:33.062Z,63.40
2023-05-11T19:27:59.554Z,63.40
2023-05-11T19:30:26.059Z,63.40
2023-05-11T19:32:52.597Z,63.40
2023-05-11T19:35:19.136Z,63.40
2023-05-11T19:37:45.639Z,63.40
2023-05-11T19:40:43.828Z,63.50
2023-05-11T19:42:58.581Z,63.50
2023-05-11T19:45:25.072Z,63.50
2023-05-11T19:47:51.591Z,63.50
2023-05-11T19:50:19.270Z,63.40
2023-05-11T19:52:46.975Z,63.50
2023-05-11T19:55:13.465Z,63.50
2023-05-11T19:57:39.943Z,63.50
2023-05-11T20:00:06.438Z,63.50
2023-05-11T20:02:32.999Z,63.50
2023-05-11T20:04:59.586Z,63.50
2023-05-11T20:07:26.044Z,63.50
2023-05-11T20:09:52.548Z,63.50
2023-05-11T20:12:19.033Z,63.60
2023-05-11T20:14:45.526Z,63.50
2023-05-11T20:17:12.007Z,63.50
2023-05-11T20:19:38.523Z,63.50
2023-05-11T20:22:05.018Z,63.50
2023-05-11T20:24:31.517Z,63.60
2023-05-11T20:26:58.002Z,63.60
2023-05-11T20:29:24.473Z,63.50
2023-05-11T20:31:51.054Z,63.60
2023-05-11T20:34:17.601Z,63.50
2023-05-11T20:36:44.088Z,63.50
2023-05-11T20:39:10.576Z,63.60
2023-05-11T20:41:37.062Z,63.60
2023-05-11T20:44:03.559Z,63.60
2023-05-11T20:46:30.010Z,63.60
2023-05-11T20:48:56.495Z,63.60
2023-05-11T20:51:22.966Z,63.60
2023-05-11T20:53:49.454Z,63.60
2023-05-11T20:56:15.940Z,63.60
2023-05-11T20:58:42.421Z,63.60
2023-05-11T21:01:08.971Z,63.70
2023-05-11T21:03:37.806Z,63.60
2023-05-11T21:08:54.951Z,63.60
2023-05-11T21:11:21.420Z,63.60
2023-05-11T21:13:47.894Z,63.70
2023-05-11T21:16:14.368Z,63.70
2023-05-11T21:18:40.940Z,63.60
2023-05-11T21:21:07.430Z,63.70
2023-05-11T21:23:33.898Z,63.70
2023-05-11T21:26:00.392Z,63.60
2023-05-11T21:28:26.867Z,63.70
2023-05-11T21:30:55.769Z,63.70
2023-05-11T21:33:22.329Z,63.70
2023-05-11T21:35:48.802Z,63.60
2023-05-11T21:38:15.263Z,63.70
2023-05-11T21:40:41.765Z,63.70
2023-05-11T21:43:10.173Z,63.70
2023-05-11T21:45:37.478Z,63.70
2023-05-11T21:48:03.998Z,63.70
2023-05-11T21:50:30.501Z,63.70
2023-05-11T21:52:57.012Z,63.70
2023-05-11T21:55:23.457Z,63.60
2023-05-11T21:57:49.944Z,63.70
2023-05-11T22:00:16.476Z,63.70
2023-05-11T22:02:43.120Z,63.70
2023-05-11T22:05:09.668Z,63.70
2023-05-11T22:07:36.151Z,63.70
2023-05-11T22:10:02.640Z,63.70
2023-05-11T22:12:29.127Z,63.70
2023-05-11T22:14:55.614Z,63.80
2023-05-11T22:17:22.147Z,63.70
2023-05-11T22:19:48.635Z,63.70
2023-05-11T22:22:15.133Z,63.70
2023-05-11T22:24:41.591Z,63.80
2023-05-11T22:27:08.064Z,63.80
2023-05-11T22:29:34.519Z,63.80
2023-05-11T22:32:01.025Z,63.80
2023-05-11T22:34:27.555Z,63.80
2023-05-11T22:36:54.126Z,63.80
2023-05-11T22:39:20.608Z,63.70
2023-05-11T22:41:47.089Z,63.80
2023-05-11T22:44:13.546Z,63.70
2023-05-11T22:46:40.030Z,63.80
2023-05-11T22:49:06.534Z,63.80
2023-05-11T22:51:33.032Z,63.70
2023-05-11T22:53:59.529Z,63.70
2023-05-11T22:56:26.003Z,63.70
2023-05-11T22:58:52.574Z,63.70
2023-05-11T23:01:19.118Z,63.80
2023-05-11T23:03:45.680Z,63.70
2023-05-11T23:06:12.161Z,63.80
2023-05-11T23:08:38.673Z,63.70
2023-05-11T23:11:05.152Z,63.70
2023-05-11T23:13:31.636Z,63.80
2023-05-11T23:15:58.127Z,63.80
2023-05-11T23:18:24.798Z,63.60
2023-05-11T23:20:51.359Z,63.70
2023-05-11T23:23:17.850Z,63.80
2023-05-11T23:25:44.334Z,63.70
2023-05-11T23:28:10.817Z,63.80
2023-05-11T23:30:37.281Z,63.80
2023-05-11T23:33:03.877Z,63.80
2023-05-11T23:35:30.399Z,63.80
2023-05-11T23:37:56.901Z,63.80
2023-05-11T23:40:23.367Z,63.80
2023-05-11T23:42:49.887Z,63.80
2023-05-11T23:45:16.368Z,63.80
2023-05-11T23:47:42.963Z,63.80
2023-05-11T23:50:09.520Z,63.90
2023-05-11T23:52:36.007Z,63.90
2023-05-11T23:55:02.518Z,63.80
2023-05-11T23:57:28.989Z,63.90
2023-05-11T23:59:55.479Z,63.90
